Jamestown, North Dakota
Current Conditions -  °F | °C
As of 3:56 AM on Saturday 29 Nov 2014 (Local Time) from KJMS Reporting Station
Broken Clouds Broken Clouds  
Wind Chill: -11°   Ceiling: 10000
Heat Index: -7°   Visibility: 10mi
Dew Point: -9°   Wind: 6mph
Humidity: 85%   Direction: 160°SSE
Pressure: 29.38"   Gusts: NA
Location:  46.91°N, 98.71°W
Report Text: KJMS 290956Z AUTO 16005KT 10SM BKN100 M07/M09 A2938 RMK AO2 SLP975 T10671089
Loading
Personal Weather Stations






























Interactive Weather Map New forecast layout! Learn more

10-Day Weather Forecast

Advertisements
Track Severe Weather on mobile